sensor_id;sensor_type;location;lat;lon;timestamp;temperature;humidity
4054;DHT22;2042;47.956;9.222;2023-10-19T00:01:13;6.90;55.40
4054;DHT22;2042;47.956;9.222;2023-10-19T00:03:41;6.90;55.20
4054;DHT22;2042;47.956;9.222;2023-10-19T00:06:06;6.80;55.20
4054;DHT22;2042;47.956;9.222;2023-10-19T00:08:32;6.80;55.40
4054;DHT22;2042;47.956;9.222;2023-10-19T00:11:07;6.80;55.50
4054;DHT22;2042;47.956;9.222;2023-10-19T00:13:47;6.90;55.70
4054;DHT22;2042;47.956;9.222;2023-10-19T00:16:15;6.90;55.80
4054;DHT22;2042;47.956;9.222;2023-10-19T00:18:49;6.90;56.00
4054;DHT22;2042;47.956;9.222;2023-10-19T00:21:16;6.90;56.20
4054;DHT22;2042;47.956;9.222;2023-10-19T00:23:45;6.90;55.90
4054;DHT22;2042;47.956;9.222;2023-10-19T00:26:13;6.90;56.10
4054;DHT22;2042;47.956;9.222;2023-10-19T00:28:46;6.90;56.40
4054;DHT22;2042;47.956;9.222;2023-10-19T00:31:15;6.90;56.40
4054;DHT22;2042;47.956;9.222;2023-10-19T00:33:40;7.00;56.60
4054;DHT22;2042;47.956;9.222;2023-10-19T00:36:07;7.00;56.80
4054;DHT22;2042;47.956;9.222;2023-10-19T00:38:37;7.00;56.70
4054;DHT22;2042;47.956;9.222;2023-10-19T00:41:21;7.00;56.60
4054;DHT22;2042;47.956;9.222;2023-10-19T00:43:48;7.00;56.80
4054;DHT22;2042;47.956;9.222;2023-10-19T00:46:23;7.00;57.00
4054;DHT22;2042;47.956;9.222;2023-10-19T00:48:57;7.10;57.20
4054;DHT22;2042;47.956;9.222;2023-10-19T00:51:52;7.10;57.40
4054;DHT22;2042;47.956;9.222;2023-10-19T00:54:31;7.10;57.30
4054;DHT22;2042;47.956;9.222;2023-10-19T00:57:25;7.10;57.30
4054;DHT22;2042;47.956;9.222;2023-10-19T01:00:02;7.10;57.30
4054;DHT22;2042;47.956;9.222;2023-10-19T01:02:38;7.20;57.50
4054;DHT22;2042;47.956;9.222;2023-10-19T01:05:11;7.20;57.60
4054;DHT22;2042;47.956;9.222;2023-10-19T01:07:40;7.20;58.00
4054;DHT22;2042;47.956;9.222;2023-10-19T01:10:07;7.20;58.20
4054;DHT22;2042;47.956;9.222;2023-10-19T01:12:53;7.30;58.40
4054;DHT22;2042;47.956;9.222;2023-10-19T01:15:21;7.30;58.40
4054;DHT22;2042;47.956;9.222;2023-10-19T01:17:59;7.40;58.50
4054;DHT22;2042;47.956;9.222;2023-10-19T01:20:29;7.40;58.60
4054;DHT22;2042;47.956;9.222;2023-10-19T01:23:08;7.40;58.70
4054;DHT22;2042;47.956;9.222;2023-10-19T01:25:59;7.40;58.70
4054;DHT22;2042;47.956;9.222;2023-10-19T01:28:30;7.50;58.70
4054;DHT22;2042;47.956;9.222;2023-10-19T01:31:19;7.50;58.70
4054;DHT22;2042;47.956;9.222;2023-10-19T01:34:06;7.50;58.70
4054;DHT22;2042;47.956;9.222;2023-10-19T01:36:33;7.50;59.00
4054;DHT22;2042;47.956;9.222;2023-10-19T01:39:08;7.50;59.00
4054;DHT22;2042;47.956;9.222;2023-10-19T01:41:37;7.60;59.20
4054;DHT22;2042;47.956;9.222;2023-10-19T01:44:05;7.60;59.40
4054;DHT22;2042;47.956;9.222;2023-10-19T01:46:33;7.60;59.60
4054;DHT22;2042;47.956;9.222;2023-10-19T01:49:01;7.60;59.60
4054;DHT22;2042;47.956;9.222;2023-10-19T01:51:30;7.70;59.70
4054;DHT22;2042;47.956;9.222;2023-10-19T01:53:59;7.70;59.70
4054;DHT22;2042;47.956;9.222;2023-10-19T01:56:26;7.70;59.50
4054;DHT22;2042;47.956;9.222;2023-10-19T01:58:52;7.70;59.10
4054;DHT22;2042;47.956;9.222;2023-10-19T02:01:20;7.60;58.50
4054;DHT22;2042;47.956;9.222;2023-10-19T02:03:48;7.60;58.00
4054;DHT22;2042;47.956;9.222;2023-10-19T02:06:18;7.40;57.20
4054;DHT22;2042;47.956;9.222;2023-10-19T02:08:50;7.30;56.90
4054;DHT22;2042;47.956;9.222;2023-10-19T02:11:19;7.30;57.10
4054;DHT22;2042;47.956;9.222;2023-10-19T02:13:46;7.20;57.50
4054;DHT22;2042;47.956;9.222;2023-10-19T02:16:13;7.20;58.00
4054;DHT22;2042;47.956;9.222;2023-10-19T02:18:43;7.20;58.70
4054;DHT22;2042;47.956;9.222;2023-10-19T02:21:09;7.30;59.10
4054;DHT22;2042;47.956;9.222;2023-10-19T02:23:38;7.30;59.20
4054;DHT22;2042;47.956;9.222;2023-10-19T02:26:04;7.30;59.30
4054;DHT22;2042;47.956;9.222;2023-10-19T02:28:30;7.40;59.60
4054;DHT22;2042;47.956;9.222;2023-10-19T02:31:03;7.40;59.70
4054;DHT22;2042;47.956;9.222;2023-10-19T02:33:44;7.40;59.90
4054;DHT22;2042;47.956;9.222;2023-10-19T02:36:30;7.40;59.90
4054;DHT22;2042;47.956;9.222;2023-10-19T02:38:57;7.50;60.10
4054;DHT22;2042;47.956;9.222;2023-10-19T02:41:26;7.50;60.10
4054;DHT22;2042;47.956;9.222;2023-10-19T02:43:55;7.50;60.10
4054;DHT22;2042;47.956;9.222;2023-10-19T02:46:40;7.50;60.20
4054;DHT22;2042;47.956;9.222;2023-10-19T02:49:08;7.50;60.20
4054;DHT22;2042;47.956;9.222;2023-10-19T02:51:42;7.60;60.20
4054;DHT22;2042;47.956;9.222;2023-10-19T02:54:11;7.60;60.30
4054;DHT22;2042;47.956;9.222;2023-10-19T02:56:49;7.60;60.30
4054;DHT22;2042;47.956;9.222;2023-10-19T02:59:15;7.60;60.40
4054;DHT22;2042;47.956;9.222;2023-10-19T03:01:42;7.60;60.50
4054;DHT22;2042;47.956;9.222;2023-10-19T03:04:11;7.60;60.50
4054;DHT22;2042;47.956;9.222;2023-10-19T03:06:41;7.70;60.70
4054;DHT22;2042;47.956;9.222;2023-10-19T03:09:08;7.70;60.90
4054;DHT22;2042;47.956;9.222;2023-10-19T03:11:56;7.70;61.10
4054;DHT22;2042;47.956;9.222;2023-10-19T03:14:26;7.70;61.20
4054;DHT22;2042;47.956;9.222;2023-10-19T03:16:53;7.80;61.40
4054;DHT22;2042;47.956;9.222;2023-10-19T03:19:21;7.80;61.40
4054;DHT22;2042;47.956;9.222;2023-10-19T03:21:47;7.80;61.40
4054;DHT22;2042;47.956;9.222;2023-10-19T03:24:17;7.80;61.40
4054;DHT22;2042;47.956;9.222;2023-10-19T03:26:51;7.80;61.30
4054;DHT22;2042;47.956;9.222;2023-10-19T03:29:19;7.90;61.50
4054;DHT22;2042;47.956;9.222;2023-10-19T03:31:51;7.90;61.50
4054;DHT22;2042;47.956;9.222;2023-10-19T03:34:17;7.90;61.00
4054;DHT22;2042;47.956;9.222;2023-10-19T03:36:43;7.80;60.50
4054;DHT22;2042;47.956;9.222;2023-10-19T03:39:10;7.70;60.10
4054;DHT22;2042;47.956;9.222;2023-10-19T03:41:41;7.70;60.10
4054;DHT22;2042;47.956;9.222;2023-10-19T03:44:13;7.60;60.30
4054;DHT22;2042;47.956;9.222;2023-10-19T03:46:49;7.70;60.60
4054;DHT22;2042;47.956;9.222;2023-10-19T03:49:26;7.70;60.90
4054;DHT22;2042;47.956;9.222;2023-10-19T03:52:07;7.70;61.00
4054;DHT22;2042;47.956;9.222;2023-10-19T03:54:36;7.70;61.20
4054;DHT22;2042;47.956;9.222;2023-10-19T03:57:09;7.70;61.20
4054;DHT22;2042;47.956;9.222;2023-10-19T03:59:38;7.70;61.00
4054;DHT22;2042;47.956;9.222;2023-10-19T04:02:04;7.60;60.50
4054;DHT22;2042;47.956;9.222;2023-10-19T04:04:35;7.60;60.40
4054;DHT22;2042;47.956;9.222;2023-10-19T04:07:01;7.60;60.60
4054;DHT22;2042;47.956;9.222;2023-10-19T04:09:36;7.60;60.80
4054;DHT22;2042;47.956;9.222;2023-10-19T04:12:14;7.60;61.10
4054;DHT22;2042;47.956;9.222;2023-10-19T04:14:42;7.60;61.30
4054;DHT22;2042;47.956;9.222;2023-10-19T04:17:08;7.70;61.90
4054;DHT22;2042;47.956;9.222;2023-10-19T04:19:37;7.80;62.30
4054;DHT22;2042;47.956;9.222;2023-10-19T04:22:03;7.90;62.80
4054;DHT22;2042;47.956;9.222;2023-10-19T04:24:30;8.00;62.90
4054;DHT22;2042;47.956;9.222;2023-10-19T04:26:58;8.10;62.90
4054;DHT22;2042;47.956;9.222;2023-10-19T04:29:25;8.10;62.80
4054;DHT22;2042;47.956;9.222;2023-10-19T04:31:53;8.20;62.90
4054;DHT22;2042;47.956;9.222;2023-10-19T04:34:22;8.30;62.80
4054;DHT22;2042;47.956;9.222;2023-10-19T04:36:50;8.30;62.60
4054;DHT22;2042;47.956;9.222;2023-10-19T04:39:18;8.30;62.60
4054;DHT22;2042;47.956;9.222;2023-10-19T04:41:47;8.30;62.50
4054;DHT22;2042;47.956;9.222;2023-10-19T04:44:15;8.30;62.60
4054;DHT22;2042;47.956;9.222;2023-10-19T04:46:41;8.30;61.60
4054;DHT22;2042;47.956;9.222;2023-10-19T04:49:07;8.30;60.90
4054;DHT22;2042;47.956;9.222;2023-10-19T04:51:34;8.30;60.80
4054;DHT22;2042;47.956;9.222;2023-10-19T04:54:01;8.40;60.80
4054;DHT22;2042;47.956;9.222;2023-10-19T04:56:27;8.30;60.70
4054;DHT22;2042;47.956;9.222;2023-10-19T04:58:53;8.30;60.70
4054;DHT22;2042;47.956;9.222;2023-10-19T05:01:19;8.30;60.60
4054;DHT22;2042;47.956;9.222;2023-10-19T05:03:44;8.30;60.50
4054;DHT22;2042;47.956;9.222;2023-10-19T05:06:10;8.30;60.50
4054;DHT22;2042;47.956;9.222;2023-10-19T05:08:36;8.30;60.60
4054;DHT22;2042;47.956;9.222;2023-10-19T05:11:02;8.30;60.70
4054;DHT22;2042;47.956;9.222;2023-10-19T05:13:30;8.40;60.80
4054;DHT22;2042;47.956;9.222;2023-10-19T05:15:56;8.40;60.80
4054;DHT22;2042;47.956;9.222;2023-10-19T05:18:24;8.40;60.70
4054;DHT22;2042;47.956;9.222;2023-10-19T05:20:54;8.40;60.60
4054;DHT22;2042;47.956;9.222;2023-10-19T05:23:26;8.40;60.50
4054;DHT22;2042;47.956;9.222;2023-10-19T05:25:59;8.40;60.40
4054;DHT22;2042;47.956;9.222;2023-10-19T05:28:25;8.40;60.40
4054;DHT22;2042;47.956;9.222;2023-10-19T05:30:51;8.40;60.20
4054;DHT22;2042;47.956;9.222;2023-10-19T05:33:17;8.40;59.90
4054;DHT22;2042;47.956;9.222;2023-10-19T05:35:49;8.30;59.80
4054;DHT22;2042;47.956;9.222;2023-10-19T05:38:16;8.30;60.00
4054;DHT22;2042;47.956;9.222;2023-10-19T05:40:44;8.30;60.10
4054;DHT22;2042;47.956;9.222;2023-10-19T05:43:11;8.40;60.10
4054;DHT22;2042;47.956;9.222;2023-10-19T05:45:37;8.30;59.90
4054;DHT22;2042;47.956;9.222;2023-10-19T05:48:04;8.40;59.90
4054;DHT22;2042;47.956;9.222;2023-10-19T05:50:33;8.40;60.00
4054;DHT22;2042;47.956;9.222;2023-10-19T05:52:59;8.40;60.00
4054;DHT22;2042;47.956;9.222;2023-10-19T05:55:25;8.40;60.00
4054;DHT22;2042;47.956;9.222;2023-10-19T05:57:51;8.40;60.20
4054;DHT22;2042;47.956;9.222;2023-10-19T06:00:17;8.50;61.00
4054;DHT22;2042;47.956;9.222;2023-10-19T06:02:46;8.50;60.30
4054;DHT22;2042;47.956;9.222;2023-10-19T06:05:13;8.50;60.10
4054;DHT22;2042;47.956;9.222;2023-10-19T06:07:41;8.50;60.10
4054;DHT22;2042;47.956;9.222;2023-10-19T06:10:08;8.50;60.30
4054;DHT22;2042;47.956;9.222;2023-10-19T06:12:44;8.60;60.80
4054;DHT22;2042;47.956;9.222;2023-10-19T06:15:11;8.60;61.00
4054;DHT22;2042;47.956;9.222;2023-10-19T06:17:41;8.70;61.20
4054;DHT22;2042;47.956;9.222;2023-10-19T06:20:08;8.70;61.20
4054;DHT22;2042;47.956;9.222;2023-10-19T06:22:48;8.80;61.10
4054;DHT22;2042;47.956;9.222;2023-10-19T06:25:18;8.80;60.80
4054;DHT22;2042;47.956;9.222;2023-10-19T06:27:45;8.80;60.80
4054;DHT22;2042;47.956;9.222;2023-10-19T06:30:12;8.80;60.80
4054;DHT22;2042;47.956;9.222;2023-10-19T06:32:44;8.80;60.90
4054;DHT22;2042;47.956;9.222;2023-10-19T06:35:09;8.80;60.90
4054;DHT22;2042;47.956;9.222;2023-10-19T06:37:36;8.80;60.80
4054;DHT22;2042;47.956;9.222;2023-10-19T06:40:02;8.80;60.80
4054;DHT22;2042;47.956;9.222;2023-10-19T06:42:28;8.80;60.90
4054;DHT22;2042;47.956;9.222;2023-10-19T06:44:56;8.90;61.20
4054;DHT22;2042;47.956;9.222;2023-10-19T06:47:22;8.90;61.40
4054;DHT22;2042;47.956;9.222;2023-10-19T06:49:48;9.00;61.60
4054;DHT22;2042;47.956;9.222;2023-10-19T06:52:14;9.00;61.60
4054;DHT22;2042;47.956;9.222;2023-10-19T06:54:41;9.10;61.80
4054;DHT22;2042;47.956;9.222;2023-10-19T06:57:07;9.10;61.80
4054;DHT22;2042;47.956;9.222;2023-10-19T06:59:35;9.20;62.00
4054;DHT22;2042;47.956;9.222;2023-10-19T07:02:02;9.30;61.80
4054;DHT22;2042;47.956;9.222;2023-10-19T07:04:30;9.20;61.50
4054;DHT22;2042;47.956;9.222;2023-10-19T07:06:56;9.20;61.40
4054;DHT22;2042;47.956;9.222;2023-10-19T07:09:22;9.20;61.50
4054;DHT22;2042;47.956;9.222;2023-10-19T07:11:49;9.30;61.50
4054;DHT22;2042;47.956;9.222;2023-10-19T07:14:19;9.30;61.70
4054;DHT22;2042;47.956;9.222;2023-10-19T07:16:45;9.40;62.00
4054;DHT22;2042;47.956;9.222;2023-10-19T07:19:10;9.40;62.20
4054;DHT22;2042;47.956;9.222;2023-10-19T07:21:36;9.50;62.60
4054;DHT22;2042;47.956;9.222;2023-10-19T07:24:03;9.60;62.10
4054;DHT22;2042;47.956;9.222;2023-10-19T07:26:33;9.60;61.80
4054;DHT22;2042;47.956;9.222;2023-10-19T07:29:06;9.60;61.60
4054;DHT22;2042;47.956;9.222;2023-10-19T07:31:35;9.60;61.70
4054;DHT22;2042;47.956;9.222;2023-10-19T07:34:01;9.70;61.90
4054;DHT22;2042;47.956;9.222;2023-10-19T07:36:29;9.80;62.20
4054;DHT22;2042;47.956;9.222;2023-10-19T07:38:54;9.80;62.10
4054;DHT22;2042;47.956;9.222;2023-10-19T07:41:20;9.80;61.90
4054;DHT22;2042;47.956;9.222;2023-10-19T07:43:46;9.90;62.00
4054;DHT22;2042;47.956;9.222;2023-10-19T07:46:12;9.90;61.90
4054;DHT22;2042;47.956;9.222;2023-10-19T07:48:38;10.00;60.90
4054;DHT22;2042;47.956;9.222;2023-10-19T07:51:04;10.00;60.60
4054;DHT22;2042;47.956;9.222;2023-10-19T07:53:29;10.00;60.20
4054;DHT22;2042;47.956;9.222;2023-10-19T07:55:55;10.00;60.10
4054;DHT22;2042;47.956;9.222;2023-10-19T07:58:22;10.00;60.20
4054;DHT22;2042;47.956;9.222;2023-10-19T08:00:48;10.10;60.90
4054;DHT22;2042;47.956;9.222;2023-10-19T08:03:14;10.10;61.20
4054;DHT22;2042;47.956;9.222;2023-10-19T08:05:41;10.20;61.90
4054;DHT22;2042;47.956;9.222;2023-10-19T08:08:08;10.40;62.10
4054;DHT22;2042;47.956;9.222;2023-10-19T08:10:34;10.60;62.60
4054;DHT22;2042;47.956;9.222;2023-10-19T08:13:00;10.70;62.30
4054;DHT22;2042;47.956;9.222;2023-10-19T08:15:27;10.80;62.20
4054;DHT22;2042;47.956;9.222;2023-10-19T08:17:55;10.80;61.70
4054;DHT22;2042;47.956;9.222;2023-10-19T08:20:21;10.90;61.20
4054;DHT22;2042;47.956;9.222;2023-10-19T08:22:54;10.90;61.20
4054;DHT22;2042;47.956;9.222;2023-10-19T08:25:22;10.90;61.50
4054;DHT22;2042;47.956;9.222;2023-10-19T08:27:48;11.00;61.90
4054;DHT22;2042;47.956;9.222;2023-10-19T08:30:19;11.10;61.40
4054;DHT22;2042;47.956;9.222;2023-10-19T08:32:46;11.00;60.50
4054;DHT22;2042;47.956;9.222;2023-10-19T08:35:17;11.10;60.20
4054;DHT22;2042;47.956;9.222;2023-10-19T08:37:46;11.20;60.90
4054;DHT22;2042;47.956;9.222;2023-10-19T08:40:12;11.20;61.90
4054;DHT22;2042;47.956;9.222;2023-10-19T08:42:44;11.30;61.50
4054;DHT22;2042;47.956;9.222;2023-10-19T08:45:14;11.60;61.70
4054;DHT22;2042;47.956;9.222;2023-10-19T08:47:55;11.60;61.60
4054;DHT22;2042;47.956;9.222;2023-10-19T08:50:25;11.80;62.40
4054;DHT22;2042;47.956;9.222;2023-10-19T08:52:57;11.90;61.10
4054;DHT22;2042;47.956;9.222;2023-10-19T08:55:24;12.00;60.70
4054;DHT22;2042;47.956;9.222;2023-10-19T08:57:51;12.00;59.70
4054;DHT22;2042;47.956;9.222;2023-10-19T09:00:19;12.00;59.20
4054;DHT22;2042;47.956;9.222;2023-10-19T09:02:47;12.10;59.10
4054;DHT22;2042;47.956;9.222;2023-10-19T09:05:13;12.10;59.60
4054;DHT22;2042;47.956;9.222;2023-10-19T09:07:47;12.30;59.80
4054;DHT22;2042;47.956;9.222;2023-10-19T09:10:23;12.40;60.80
4054;DHT22;2042;47.956;9.222;2023-10-19T09:13:05;12.50;58.60
4054;DHT22;2042;47.956;9.222;2023-10-19T09:15:35;12.50;56.30
4054;DHT22;2042;47.956;9.222;2023-10-19T09:18:19;12.50;54.70
4054;DHT22;2042;47.956;9.222;2023-10-19T09:20:46;12.40;53.90
4054;DHT22;2042;47.956;9.222;2023-10-19T09:23:22;12.30;52.70
4054;DHT22;2042;47.956;9.222;2023-10-19T09:25:49;12.40;52.70
4054;DHT22;2042;47.956;9.222;2023-10-19T09:28:15;12.40;52.40
4054;DHT22;2042;47.956;9.222;2023-10-19T09:30:43;12.30;50.80
4054;DHT22;2042;47.956;9.222;2023-10-19T09:33:09;12.30;50.40
4054;DHT22;2042;47.956;9.222;2023-10-19T09:35:37;12.40;51.30
4054;DHT22;2042;47.956;9.222;2023-10-19T09:38:04;12.50;50.90
4054;DHT22;2042;47.956;9.222;2023-10-19T09:40:32;12.50;51.50
4054;DHT22;2042;47.956;9.222;2023-10-19T09:43:04;12.70;52.30
4054;DHT22;2042;47.956;9.222;2023-10-19T09:45:36;12.80;50.30
4054;DHT22;2042;47.956;9.222;2023-10-19T09:48:06;12.80;48.30
4054;DHT22;2042;47.956;9.222;2023-10-19T09:50:33;12.80;47.50
4054;DHT22;2042;47.956;9.222;2023-10-19T09:52:59;12.80;46.60
4054;DHT22;2042;47.956;9.222;2023-10-19T09:55:32;12.80;45.50
4054;DHT22;2042;47.956;9.222;2023-10-19T09:58:04;12.80;47.20
4054;DHT22;2042;47.956;9.222;2023-10-19T10:00:33;13.00;47.70
4054;DHT22;2042;47.956;9.222;2023-10-19T10:03:00;13.20;47.30
4054;DHT22;2042;47.956;9.222;2023-10-19T10:10:44;13.00;39.90
4054;DHT22;2042;47.956;9.222;2023-10-19T10:15:57;13.10;42.80
4054;DHT22;2042;47.956;9.222;2023-10-19T10:18:27;13.30;43.70
4054;DHT22;2042;47.956;9.222;2023-10-19T10:21:11;13.50;43.60
4054;DHT22;2042;47.956;9.222;2023-10-19T10:26:18;13.80;38.40
4054;DHT22;2042;47.956;9.222;2023-10-19T10:28:48;13.60;31.90
4054;DHT22;2042;47.956;9.222;2023-10-19T10:33:42;13.70;36.60
4054;DHT22;2042;47.956;9.222;2023-10-19T10:36:11;13.80;38.10
4054;DHT22;2042;47.956;9.222;2023-10-19T10:38:37;14.00;37.30
4054;DHT22;2042;47.956;9.222;2023-10-19T10:41:03;14.20;35.70
4054;DHT22;2042;47.956;9.222;2023-10-19T10:43:29;14.50;38.70
4054;DHT22;2042;47.956;9.222;2023-10-19T10:51:18;15.20;1.00
4054;DHT22;2042;47.956;9.222;2023-10-19T10:53:46;15.40;1.00
4054;DHT22;2042;47.956;9.222;2023-10-19T10:56:12;15.80;1.00
4054;DHT22;2042;47.956;9.222;2023-10-19T10:58:38;16.00;1.00
4054;DHT22;2042;47.956;9.222;2023-10-19T11:01:05;16.40;1.00
4054;DHT22;2042;47.956;9.222;2023-10-19T11:03:31;16.60;1.00
4054;DHT22;2042;47.956;9.222;2023-10-19T11:06:06;16.80;1.00
4054;DHT22;2042;47.956;9.222;2023-10-19T11:08:33;16.90;1.00
4054;DHT22;2042;47.956;9.222;2023-10-19T11:11:07;16.90;1.00
4054;DHT22;2042;47.956;9.222;2023-10-19T11:13:36;17.00;1.00
4054;DHT22;2042;47.956;9.222;2023-10-19T11:16:04;17.40;1.00
4054;DHT22;2042;47.956;9.222;2023-10-19T11:18:40;18.00;1.00
4054;DHT22;2042;47.956;9.222;2023-10-19T11:21:07;18.70;1.00
4054;DHT22;2042;47.956;9.222;2023-10-19T11:23:55;19.40;1.00
4054;DHT22;2042;47.956;9.222;2023-10-19T11:26:23;20.00;1.00
4054;DHT22;2042;47.956;9.222;2023-10-19T11:29:02;20.90;1.00
4054;DHT22;2042;47.956;9.222;2023-10-19T11:31:35;22.30;1.00
4054;DHT22;2042;47.956;9.222;2023-10-19T11:34:03;23.60;1.00
4054;DHT22;2042;47.956;9.222;2023-10-19T11:36:29;25.00;1.00
4054;DHT22;2042;47.956;9.222;2023-10-19T11:38:55;27.10;1.00
4054;DHT22;2042;47.956;9.222;2023-10-19T11:41:21;29.00;1.00
4054;DHT22;2042;47.956;9.222;2023-10-19T11:43:49;30.40;1.00
4054;DHT22;2042;47.956;9.222;2023-10-19T11:46:16;30.60;1.00
4054;DHT22;2042;47.956;9.222;2023-10-19T11:48:43;31.30;1.00
4054;DHT22;2042;47.956;9.222;2023-10-19T11:51:09;32.10;1.00
4054;DHT22;2042;47.956;9.222;2023-10-19T11:53:38;32.20;1.00
4054;DHT22;2042;47.956;9.222;2023-10-19T11:56:05;32.20;1.00
4054;DHT22;2042;47.956;9.222;2023-10-19T11:58:35;31.80;1.00
4054;DHT22;2042;47.956;9.222;2023-10-19T12:01:01;30.90;1.00
4054;DHT22;2042;47.956;9.222;2023-10-19T12:03:42;30.90;1.00
4054;DHT22;2042;47.956;9.222;2023-10-19T12:06:12;30.90;1.00
4054;DHT22;2042;47.956;9.222;2023-10-19T12:08:39;30.90;1.00
4054;DHT22;2042;47.956;9.222;2023-10-19T12:11:07;30.50;1.00
4054;DHT22;2042;47.956;9.222;2023-10-19T12:13:44;29.70;1.00
4054;DHT22;2042;47.956;9.222;2023-10-19T12:16:10;28.70;1.00
4054;DHT22;2042;47.956;9.222;2023-10-19T12:18:41;27.60;1.00
4054;DHT22;2042;47.956;9.222;2023-10-19T12:21:10;26.40;1.00
4054;DHT22;2042;47.956;9.222;2023-10-19T12:23:42;25.20;1.00
4054;DHT22;2042;47.956;9.222;2023-10-19T12:26:08;24.30;1.00
4054;DHT22;2042;47.956;9.222;2023-10-19T12:28:40;23.60;1.00
4054;DHT22;2042;47.956;9.222;2023-10-19T12:31:08;23.20;1.00
4054;DHT22;2042;47.956;9.222;2023-10-19T12:33:37;22.70;1.00
4054;DHT22;2042;47.956;9.222;2023-10-19T12:36:04;22.20;1.00
4054;DHT22;2042;47.956;9.222;2023-10-19T12:38:50;21.70;1.00
4054;DHT22;2042;47.956;9.222;2023-10-19T12:41:16;21.10;1.00
4054;DHT22;2042;47.956;9.222;2023-10-19T12:43:43;20.70;1.00
4054;DHT22;2042;47.956;9.222;2023-10-19T12:46:09;20.40;1.00
4054;DHT22;2042;47.956;9.222;2023-10-19T12:48:37;20.10;1.00
4054;DHT22;2042;47.956;9.222;2023-10-19T12:51:04;19.90;1.00
4054;DHT22;2042;47.956;9.222;2023-10-19T12:53:32;19.90;1.00
4054;DHT22;2042;47.956;9.222;2023-10-19T12:55:59;20.10;1.00
4054;DHT22;2042;47.956;9.222;2023-10-19T12:58:25;20.70;1.00
4054;DHT22;2042;47.956;9.222;2023-10-19T13:00:53;21.20;1.00
4054;DHT22;2042;47.956;9.222;2023-10-19T13:03:20;21.30;1.00
4054;DHT22;2042;47.956;9.222;2023-10-19T13:05:47;21.10;1.00
4054;DHT22;2042;47.956;9.222;2023-10-19T13:08:15;20.90;1.00
4054;DHT22;2042;47.956;9.222;2023-10-19T13:10:46;20.50;1.00
4054;DHT22;2042;47.956;9.222;2023-10-19T13:13:14;20.20;1.00
4054;DHT22;2042;47.956;9.222;2023-10-19T13:15:45;19.90;1.00
4054;DHT22;2042;47.956;9.222;2023-10-19T13:18:12;19.90;1.00
4054;DHT22;2042;47.956;9.222;2023-10-19T13:20:53;20.00;1.00
4054;DHT22;2042;47.956;9.222;2023-10-19T13:23:20;20.00;1.00
4054;DHT22;2042;47.956;9.222;2023-10-19T13:25:49;20.00;1.00
4054;DHT22;2042;47.956;9.222;2023-10-19T13:28:17;19.80;1.00
4054;DHT22;2042;47.956;9.222;2023-10-19T13:30:46;19.70;1.00
4054;DHT22;2042;47.956;9.222;2023-10-19T13:33:16;19.60;1.00
4054;DHT22;2042;47.956;9.222;2023-10-19T13:35:43;19.50;1.00
4054;DHT22;2042;47.956;9.222;2023-10-19T13:38:10;19.40;1.00
4054;DHT22;2042;47.956;9.222;2023-10-19T13:40:37;19.30;1.00
4054;DHT22;2042;47.956;9.222;2023-10-19T13:43:04;19.30;1.00
4054;DHT22;2042;47.956;9.222;2023-10-19T13:45:35;19.20;1.00
4054;DHT22;2042;47.956;9.222;2023-10-19T13:48:05;19.20;1.00
4054;DHT22;2042;47.956;9.222;2023-10-19T13:50:34;19.30;1.00
4054;DHT22;2042;47.956;9.222;2023-10-19T13:53:01;19.20;1.00
4054;DHT22;2042;47.956;9.222;2023-10-19T13:55:28;19.00;1.00
4054;DHT22;2042;47.956;9.222;2023-10-19T13:57:55;18.80;1.00
4054;DHT22;2042;47.956;9.222;2023-10-19T14:00:22;18.60;1.00
4054;DHT22;2042;47.956;9.222;2023-10-19T14:03:01;18.50;1.00
4054;DHT22;2042;47.956;9.222;2023-10-19T14:05:28;18.50;1.00
4054;DHT22;2042;47.956;9.222;2023-10-19T14:07:55;18.40;1.00
4054;DHT22;2042;47.956;9.222;2023-10-19T14:10:21;18.40;1.00
4054;DHT22;2042;47.956;9.222;2023-10-19T14:12:48;18.40;1.00
4054;DHT22;2042;47.956;9.222;2023-10-19T14:15:18;18.40;1.00
4054;DHT22;2042;47.956;9.222;2023-10-19T14:17:46;18.40;1.00
4054;DHT22;2042;47.956;9.222;2023-10-19T14:20:13;18.40;1.00
4054;DHT22;2042;47.956;9.222;2023-10-19T14:22:42;18.50;1.00
4054;DHT22;2042;47.956;9.222;2023-10-19T14:25:10;18.80;1.00
4054;DHT22;2042;47.956;9.222;2023-10-19T14:27:44;19.00;1.00
4054;DHT22;2042;47.956;9.222;2023-10-19T14:30:11;19.30;1.00
4054;DHT22;2042;47.956;9.222;2023-10-19T14:32:42;19.50;1.00
4054;DHT22;2042;47.956;9.222;2023-10-19T14:35:09;19.60;1.00
4054;DHT22;2042;47.956;9.222;2023-10-19T14:37:42;19.60;1.00
4054;DHT22;2042;47.956;9.222;2023-10-19T14:40:13;19.40;1.00
4054;DHT22;2042;47.956;9.222;2023-10-19T14:42:43;19.20;1.00
4054;DHT22;2042;47.956;9.222;2023-10-19T14:45:13;18.90;1.00
4054;DHT22;2042;47.956;9.222;2023-10-19T14:47:48;18.70;1.00
4054;DHT22;2042;47.956;9.222;2023-10-19T14:50:17;18.60;1.00
4054;DHT22;2042;47.956;9.222;2023-10-19T14:52:49;18.60;1.00
4054;DHT22;2042;47.956;9.222;2023-10-19T14:55:15;18.60;1.00
4054;DHT22;2042;47.956;9.222;2023-10-19T14:57:43;18.60;1.00
4054;DHT22;2042;47.956;9.222;2023-10-19T15:00:11;18.70;1.00
4054;DHT22;2042;47.956;9.222;2023-10-19T15:02:51;18.60;1.00
4054;DHT22;2042;47.956;9.222;2023-10-19T15:05:20;18.50;1.00
4054;DHT22;2042;47.956;9.222;2023-10-19T15:07:47;18.30;1.00
4054;DHT22;2042;47.956;9.222;2023-10-19T15:10:17;18.00;1.00
4054;DHT22;2042;47.956;9.222;2023-10-19T15:12:43;17.80;1.00
4054;DHT22;2042;47.956;9.222;2023-10-19T15:15:10;17.70;1.00
4054;DHT22;2042;47.956;9.222;2023-10-19T15:17:39;17.60;1.00
4054;DHT22;2042;47.956;9.222;2023-10-19T15:20:10;17.60;1.00
4054;DHT22;2042;47.956;9.222;2023-10-19T15:22:37;17.50;1.00
4054;DHT22;2042;47.956;9.222;2023-10-19T15:25:04;17.40;1.00
4054;DHT22;2042;47.956;9.222;2023-10-19T15:27:30;17.20;1.00
4054;DHT22;2042;47.956;9.222;2023-10-19T20:01:19;12.80;20.20
4054;DHT22;2042;47.956;9.222;2023-10-19T20:03:45;12.80;21.50
4054;DHT22;2042;47.956;9.222;2023-10-19T20:06:11;12.70;22.20
4054;DHT22;2042;47.956;9.222;2023-10-19T20:08:40;12.70;22.70
4054;DHT22;2042;47.956;9.222;2023-10-19T20:11:05;12.60;22.90
4054;DHT22;2042;47.956;9.222;2023-10-19T20:13:33;12.60;23.30
4054;DHT22;2042;47.956;9.222;2023-10-19T20:15:59;12.60;23.70
4054;DHT22;2042;47.956;9.222;2023-10-19T20:18:24;12.60;23.90
4054;DHT22;2042;47.956;9.222;2023-10-19T20:20:50;12.60;24.10
4054;DHT22;2042;47.956;9.222;2023-10-19T20:23:16;12.60;24.40
4054;DHT22;2042;47.956;9.222;2023-10-19T20:25:45;12.60;24.70
4054;DHT22;2042;47.956;9.222;2023-10-19T20:28:11;12.60;24.80
4054;DHT22;2042;47.956;9.222;2023-10-19T20:30:36;12.60;24.70
4054;DHT22;2042;47.956;9.222;2023-10-19T20:33:02;12.50;24.60
4054;DHT22;2042;47.956;9.222;2023-10-19T20:35:29;12.50;24.70
4054;DHT22;2042;47.956;9.222;2023-10-19T20:37:58;12.50;24.90
4054;DHT22;2042;47.956;9.222;2023-10-19T20:40:24;12.50;25.60
4054;DHT22;2042;47.956;9.222;2023-10-19T20:42:55;12.50;25.40
4054;DHT22;2042;47.956;9.222;2023-10-19T20:45:24;12.40;25.50
4054;DHT22;2042;47.956;9.222;2023-10-19T20:47:52;12.50;25.60
4054;DHT22;2042;47.956;9.222;2023-10-19T20:50:19;12.40;25.50
4054;DHT22;2042;47.956;9.222;2023-10-19T20:53:02;12.40;25.50
4054;DHT22;2042;47.956;9.222;2023-10-19T20:55:31;12.40;25.40
4054;DHT22;2042;47.956;9.222;2023-10-19T20:58:04;12.30;25.30
4054;DHT22;2042;47.956;9.222;2023-10-19T21:00:30;12.30;25.20
4054;DHT22;2042;47.956;9.222;2023-10-19T21:02:56;12.20;25.20
4054;DHT22;2042;47.956;9.222;2023-10-19T21:05:52;12.20;25.40
4054;DHT22;2042;47.956;9.222;2023-10-19T21:08:21;12.20;25.40
4054;DHT22;2042;47.956;9.222;2023-10-19T21:10:47;12.10;25.40
4054;DHT22;2042;47.956;9.222;2023-10-19T21:13:13;12.10;25.40
4054;DHT22;2042;47.956;9.222;2023-10-19T21:16:13;12.10;25.40
4054;DHT22;2042;47.956;9.222;2023-10-19T21:18:32;12.00;25.30